createdAt,value
2022-12-14T00:02:19.413Z,20.52
2022-12-14T00:04:49.353Z,21.67
2022-12-14T00:07:19.088Z,19.38
2022-12-14T00:09:48.720Z,19.83
2022-12-14T00:12:19.159Z,20.02
2022-12-14T00:14:48.802Z,18.40
2022-12-14T00:17:18.691Z,20.02
2022-12-14T00:19:48.974Z,19.42
2022-12-14T00:22:18.808Z,18.40
2022-12-14T00:24:47.200Z,21.45
2022-12-14T00:27:15.682Z,20.30
2022-12-14T00:29:45.061Z,20.05
2022-12-14T00:32:12.474Z,20.88
2022-12-14T00:34:40.995Z,20.40
2022-12-14T00:37:09.439Z,20.20
2022-12-14T00:39:37.785Z,21.85
2022-12-14T00:42:08.646Z,20.10
2022-12-14T00:44:37.638Z,20.67
2022-12-14T00:47:06.143Z,21.73
2022-12-14T00:49:34.604Z,21.15
2022-12-14T00:52:03.316Z,21.70
2022-12-14T00:54:31.603Z,20.75
2022-12-14T00:57:00.356Z,21.63
2022-12-14T00:59:28.449Z,22.65
2022-12-14T01:01:57.287Z,20.58
2022-12-14T01:04:26.276Z,22.98
2022-12-14T01:06:55.321Z,20.75
2022-12-14T01:09:27.243Z,22.10
2022-12-14T01:11:56.671Z,20.65
2022-12-14T01:14:26.910Z,21.55
2022-12-14T01:16:56.691Z,20.77
2022-12-14T01:19:26.584Z,21.83
2022-12-14T01:21:56.412Z,20.15
2022-12-14T01:24:23.934Z,20.85
2022-12-14T01:26:53.864Z,21.17
2022-12-14T01:29:24.987Z,20.80
2022-12-14T01:31:54.439Z,21.80
2022-12-14T01:34:24.484Z,20.95
2022-12-14T01:36:54.318Z,22.23
2022-12-14T01:39:24.401Z,20.58
2022-12-14T01:41:53.945Z,19.73
2022-12-14T01:44:23.729Z,21.35
2022-12-14T01:47:12.722Z,21.83
2022-12-14T01:50:07.960Z,19.60
2022-12-14T01:52:47.063Z,20.85
2022-12-14T01:55:49.125Z,17.83
2022-12-14T01:58:26.362Z,18.88
2022-12-14T02:01:02.953Z,19.90
2022-12-14T02:03:42.827Z,20.42
2022-12-14T02:06:36.245Z,21.35
2022-12-14T02:09:18.842Z,19.45
2022-12-14T02:12:26.765Z,19.88
2022-12-14T02:14:58.967Z,19.67
2022-12-14T02:17:29.382Z,21.00
2022-12-14T02:19:59.662Z,20.63
2022-12-14T02:23:06.167Z,20.25
2022-12-14T02:26:09.207Z,20.45
2022-12-14T02:29:32.941Z,19.63
2022-12-14T02:33:06.698Z,18.30
2022-12-14T02:36:01.195Z,17.80
2022-12-14T02:38:52.848Z,19.67
2022-12-14T02:41:44.523Z,18.63
2022-12-14T02:44:46.911Z,20.60
2022-12-14T02:47:45.630Z,18.52
2022-12-14T02:51:11.725Z,17.52
2022-12-14T02:54:47.369Z,19.27
2022-12-14T02:57:33.395Z,19.20
2022-12-14T03:00:07.474Z,18.80
2022-12-14T03:02:44.072Z,20.38
2022-12-14T03:05:14.806Z,21.15
2022-12-14T03:08:19.109Z,19.05
2022-12-14T03:11:08.168Z,19.90
2022-12-14T03:16:44.536Z,17.83
2022-12-14T03:19:35.593Z,18.90
2022-12-14T03:22:23.419Z,19.38
2022-12-14T03:25:08.976Z,19.60
2022-12-14T03:27:55.751Z,19.83
2022-12-14T03:30:58.243Z,19.63
2022-12-14T03:33:29.364Z,18.55
2022-12-14T03:36:34.261Z,20.80
2022-12-14T03:39:17.367Z,19.85
2022-12-14T03:42:31.580Z,20.50
2022-12-14T03:45:22.257Z,18.90
2022-12-14T03:48:25.007Z,19.77
2022-12-14T03:51:07.056Z,19.52
2022-12-14T03:54:49.817Z,19.33
2022-12-14T03:57:55.614Z,21.02
2022-12-14T04:00:32.815Z,20.15
2022-12-14T04:03:54.239Z,21.10
2022-12-14T04:06:52.583Z,18.60
2022-12-14T04:10:44.876Z,19.40
2022-12-14T04:13:48.958Z,18.23
2022-12-14T04:16:49.465Z,17.90
2022-12-14T04:19:40.046Z,19.38
2022-12-14T04:22:25.874Z,21.02
2022-12-14T04:25:27.389Z,20.30
2022-12-14T04:29:00.007Z,20.67
2022-12-14T04:31:38.016Z,20.27
2022-12-14T04:34:16.023Z,20.30
2022-12-14T04:37:16.932Z,20.92
2022-12-14T04:40:20.463Z,21.67
2022-12-14T04:43:02.215Z,19.63
2022-12-14T04:45:49.031Z,20.02
2022-12-14T04:49:03.206Z,20.80
2022-12-14T04:52:03.409Z,21.35
2022-12-14T04:55:05.016Z,20.00
2022-12-14T04:58:06.514Z,19.25
2022-12-14T05:01:06.776Z,19.33
2022-12-14T05:04:12.123Z,19.33
2022-12-14T05:07:41.902Z,19.58
2022-12-14T05:10:37.611Z,19.33
2022-12-14T05:13:37.048Z,18.95
2022-12-14T05:16:08.563Z,18.90
2022-12-14T05:18:38.897Z,20.42
2022-12-14T05:21:30.595Z,18.88
2022-12-14T05:24:04.334Z,19.42
2022-12-14T05:26:34.678Z,19.95
2022-12-14T05:29:04.709Z,20.90
2022-12-14T05:31:35.357Z,19.90
2022-12-14T05:34:05.464Z,19.73
2022-12-14T05:36:35.635Z,19.85
2022-12-14T05:39:05.776Z,20.58
2022-12-14T05:41:35.772Z,21.98
2022-12-14T05:44:04.676Z,20.35
2022-12-14T05:46:32.950Z,19.52
2022-12-14T05:49:01.224Z,19.45
2022-12-14T05:51:29.632Z,19.27
2022-12-14T05:53:59.136Z,20.70
2022-12-14T05:56:26.657Z,19.42
2022-12-14T05:58:54.914Z,21.13
2022-12-14T06:01:23.666Z,19.05
2022-12-14T06:03:55.017Z,19.70
2022-12-14T06:06:23.472Z,21.17
2022-12-14T06:08:51.664Z,20.85
2022-12-14T06:11:23.948Z,18.80
2022-12-14T06:13:54.022Z,18.63
2022-12-14T06:16:26.713Z,18.45
2022-12-14T06:19:01.023Z,19.95
2022-12-14T06:21:39.482Z,19.17
2022-12-14T06:24:09.798Z,18.35
2022-12-14T06:26:42.441Z,18.85
2022-12-14T06:29:19.043Z,18.77
2022-12-14T06:31:49.652Z,20.15
2022-12-14T06:34:24.804Z,17.52
2022-12-14T06:40:57.720Z,17.08
2022-12-14T06:43:27.167Z,17.65
2022-12-14T06:45:57.545Z,18.70
2022-12-14T06:48:25.762Z,17.05
2022-12-14T06:51:01.615Z,17.65
2022-12-14T06:53:34.438Z,20.50
2022-12-14T06:56:10.100Z,19.15
2022-12-14T06:58:40.470Z,18.90
2022-12-14T07:01:17.031Z,18.73
2022-12-14T07:03:57.430Z,17.83
2022-12-14T07:06:35.087Z,17.98
2022-12-14T07:09:13.541Z,17.85
2022-12-14T07:11:43.656Z,19.65
2022-12-14T07:14:17.920Z,17.75
2022-12-14T07:16:48.691Z,20.08
2022-12-14T07:19:18.620Z,18.38
2022-12-14T07:21:48.005Z,18.30
2022-12-14T07:24:18.259Z,18.80
2022-12-14T07:26:48.266Z,17.88
2022-12-14T07:29:18.406Z,20.13
2022-12-14T07:31:49.405Z,19.33
2022-12-14T07:34:19.385Z,19.80
2022-12-14T07:36:54.219Z,19.00
2022-12-14T07:39:23.574Z,19.08
2022-12-14T07:41:52.237Z,18.70
2022-12-14T07:44:22.585Z,19.02
2022-12-14T07:46:54.106Z,18.95
2022-12-14T07:49:23.317Z,18.27
2022-12-14T07:51:53.372Z,18.70
2022-12-14T07:54:25.085Z,18.85
2022-12-14T07:56:54.563Z,18.75
2022-12-14T07:59:24.650Z,19.20
2022-12-14T08:01:55.758Z,19.17
2022-12-14T08:04:25.074Z,17.77
2022-12-14T08:06:55.615Z,18.05
2022-12-14T08:09:25.345Z,18.10
2022-12-14T08:11:55.348Z,19.33
2022-12-14T08:14:25.495Z,19.17
2022-12-14T08:16:55.536Z,18.92
2022-12-14T08:19:25.914Z,18.98
2022-12-14T08:21:55.804Z,19.10
2022-12-14T08:24:25.849Z,18.70
2022-12-14T08:26:55.565Z,20.80
2022-12-14T08:29:25.615Z,19.95
2022-12-14T08:31:56.534Z,18.95
2022-12-14T08:34:26.061Z,19.92
2022-12-14T08:36:56.091Z,20.80
2022-12-14T08:39:26.182Z,19.20
2022-12-14T08:41:56.198Z,20.48
2022-12-14T08:44:26.680Z,19.27
2022-12-14T08:46:56.533Z,21.25
2022-12-14T08:49:32.098Z,20.17
2022-12-14T08:51:59.824Z,22.58
2022-12-14T08:54:28.284Z,19.25
2022-12-14T08:56:56.622Z,18.77
2022-12-14T08:59:59.366Z,19.38
2022-12-14T09:02:15.171Z,21.85
2022-12-14T09:04:45.252Z,32.58
2022-12-14T09:07:13.779Z,25.90
2022-12-14T09:09:42.423Z,20.40
2022-12-14T09:12:14.190Z,20.23
2022-12-14T09:14:42.185Z,20.15
2022-12-14T09:17:10.343Z,18.38
2022-12-14T09:19:39.016Z,20.73
2022-12-14T09:22:07.669Z,21.15
2022-12-14T09:24:36.695Z,22.08
2022-12-14T09:27:04.379Z,19.48
2022-12-14T09:29:32.508Z,23.30
2022-12-14T09:32:00.920Z,18.25
2022-12-14T09:34:29.607Z,19.70
2022-12-14T09:36:58.005Z,19.63
2022-12-14T09:39:26.152Z,18.50
2022-12-14T09:42:50.786Z,19.58
2022-12-14T09:45:50.614Z,20.80
2022-12-14T09:48:26.003Z,19.25
2022-12-14T09:50:54.695Z,20.42
2022-12-14T09:53:24.980Z,19.83
2022-12-14T09:55:59.040Z,18.20
2022-12-14T09:58:32.637Z,19.65
2022-12-14T10:01:22.322Z,21.77
2022-12-14T10:04:10.319Z,19.52
2022-12-14T10:07:02.222Z,22.75
2022-12-14T10:10:43.716Z,20.70
2022-12-14T10:13:56.967Z,20.63
2022-12-14T10:16:51.657Z,20.10
2022-12-14T10:19:57.278Z,18.75
2022-12-14T10:22:42.479Z,19.08
2022-12-14T10:25:37.450Z,18.70
2022-12-14T10:28:36.256Z,20.00
2022-12-14T10:31:20.888Z,21.17
2022-12-14T10:33:50.727Z,21.08
2022-12-14T10:36:44.824Z,19.15
2022-12-14T10:40:15.777Z,20.83
2022-12-14T10:43:32.888Z,22.05
2022-12-14T10:46:56.295Z,21.40
2022-12-14T10:49:55.387Z,20.70
2022-12-14T10:52:41.678Z,20.50
2022-12-14T10:55:44.167Z,20.00
2022-12-14T11:00:40.326Z,18.98
2022-12-14T11:03:15.834Z,19.17
2022-12-14T11:06:12.608Z,19.00
2022-12-14T11:08:49.596Z,20.13
2022-12-14T11:11:26.712Z,20.00
2022-12-14T11:14:10.014Z,21.35
2022-12-14T11:16:41.906Z,20.33
2022-12-14T11:19:26.644Z,19.35
2022-12-14T11:22:22.267Z,19.52
2022-12-14T11:24:52.735Z,18.25
2022-12-14T11:27:22.868Z,19.02
2022-12-14T11:29:53.040Z,21.40
2022-12-14T11:32:25.629Z,19.65
2022-12-14T11:34:59.727Z,20.10
2022-12-14T11:37:32.882Z,21.02
2022-12-14T11:40:27.116Z,20.40
2022-12-14T11:43:04.822Z,18.20
2022-12-14T11:45:37.427Z,20.95
2022-12-14T11:48:14.461Z,19.48
2022-12-14T11:50:46.821Z,22.02
2022-12-14T11:53:20.294Z,19.90
2022-12-14T11:55:58.962Z,19.75
2022-12-14T11:58:46.432Z,20.73
2022-12-14T12:01:26.769Z,19.35
2022-12-14T12:03:59.535Z,20.27
2022-12-14T12:06:30.854Z,19.40
2022-12-14T12:09:11.604Z,20.45
2022-12-14T12:11:46.345Z,21.10
2022-12-14T12:14:38.920Z,20.63
2022-12-14T12:17:46.904Z,20.55
2022-12-14T12:20:40.843Z,18.85
2022-12-14T12:23:35.487Z,18.35
2022-12-14T12:26:31.905Z,19.58
2022-12-14T12:29:31.697Z,18.67
2022-12-14T12:35:51.101Z,19.20
2022-12-14T12:39:06.246Z,17.67
2022-12-14T12:42:13.247Z,19.33
2022-12-14T12:45:55.026Z,19.58
2022-12-14T12:48:43.534Z,17.02
2022-12-14T12:51:32.594Z,18.83
2022-12-14T12:54:32.870Z,18.30
2022-12-14T12:57:11.219Z,19.38
2022-12-14T12:59:54.767Z,18.08
2022-12-14T13:02:46.601Z,18.05
2022-12-14T13:08:35.747Z,17.55
2022-12-14T13:11:28.427Z,19.08
2022-12-14T13:14:34.323Z,18.75
2022-12-14T13:17:49.591Z,18.67
2022-12-14T13:20:30.090Z,19.42
2022-12-14T13:23:28.376Z,18.73
2022-12-14T13:26:55.618Z,18.80
2022-12-14T13:29:48.125Z,19.58
2022-12-14T13:32:51.067Z,19.95
2022-12-14T13:35:35.827Z,18.85
2022-12-14T13:38:32.958Z,17.63
2022-12-14T13:42:07.457Z,20.40
2022-12-14T13:45:01.438Z,20.38
2022-12-14T13:47:49.383Z,20.50
2022-12-14T13:50:43.789Z,21.80
2022-12-14T13:53:42.367Z,22.10
2022-12-14T13:56:32.454Z,20.13
2022-12-14T13:59:34.196Z,19.50
2022-12-14T14:02:26.967Z,20.85
2022-12-14T14:05:15.516Z,18.65
2022-12-14T14:08:43.217Z,21.38
2022-12-14T14:11:40.022Z,20.40
2022-12-14T14:14:47.075Z,21.08
2022-12-14T14:17:38.078Z,21.42
2022-12-14T14:20:52.511Z,21.98
2022-12-14T14:23:23.403Z,21.35
2022-12-14T14:26:18.488Z,22.60
2022-12-14T14:29:29.690Z,23.15
2022-12-14T14:32:36.448Z,22.17
2022-12-14T14:35:27.620Z,22.05
2022-12-14T14:38:22.439Z,23.00
2022-12-14T14:41:18.396Z,21.23
2022-12-14T14:44:06.913Z,22.17
2022-12-14T14:46:48.783Z,23.80
2022-12-14T14:49:34.007Z,22.52
2022-12-14T14:52:37.839Z,22.42
2022-12-14T14:55:51.856Z,22.90
2022-12-14T14:58:36.970Z,23.48
2022-12-14T15:01:21.705Z,23.08
2022-12-14T15:04:21.557Z,22.20
2022-12-14T15:07:08.654Z,21.70
2022-12-14T15:09:50.799Z,24.13
2022-12-14T15:12:32.539Z,23.38
2022-12-14T15:15:42.996Z,22.17
2022-12-14T15:21:18.969Z,20.75
2022-12-14T15:23:55.874Z,22.23
2022-12-14T15:26:33.785Z,23.33
2022-12-14T15:29:04.673Z,24.52
2022-12-14T15:31:42.866Z,23.13
2022-12-14T15:34:20.694Z,25.50
2022-12-14T15:36:52.978Z,24.52
2022-12-14T15:39:43.681Z,22.20
2022-12-14T15:42:18.392Z,23.38
2022-12-14T15:45:18.406Z,24.17
2022-12-14T15:47:49.290Z,23.63
2022-12-14T15:50:34.537Z,23.00
2022-12-14T15:53:51.514Z,22.67
2022-12-14T15:56:40.743Z,23.85
2022-12-14T15:59:31.055Z,23.98
2022-12-14T16:02:32.521Z,22.88
2022-12-14T16:05:07.431Z,23.85
2022-12-14T16:07:45.095Z,24.70
2022-12-14T16:10:33.586Z,25.58
2022-12-14T16:15:52.695Z,24.45
2022-12-14T16:18:24.454Z,25.42
2022-12-14T16:21:06.494Z,27.15
2022-12-14T16:23:41.850Z,25.17
2022-12-14T16:26:16.250Z,26.52
2022-12-14T16:28:48.225Z,27.67
2022-12-14T16:31:24.105Z,29.05
2022-12-14T16:34:29.560Z,27.02
2022-12-14T16:39:54.568Z,29.10
2022-12-14T16:42:27.254Z,26.17
2022-12-14T16:44:55.555Z,26.10
2022-12-14T16:48:13.941Z,28.83
2022-12-14T16:51:04.958Z,27.75
2022-12-14T16:53:34.834Z,26.58
2022-12-14T16:56:20.882Z,28.63
2022-12-14T16:59:05.581Z,26.50
2022-12-14T17:01:46.996Z,27.95
2022-12-14T17:04:22.435Z,27.30
2022-12-14T17:06:56.520Z,26.55
2022-12-14T17:09:33.320Z,27.90
2022-12-14T17:12:17.823Z,27.65
2022-12-14T17:14:50.182Z,27.42
2022-12-14T17:17:35.798Z,29.05
2022-12-14T17:20:16.737Z,26.92
2022-12-14T17:22:49.770Z,28.38
2022-12-14T17:25:21.108Z,27.35
2022-12-14T17:27:50.168Z,25.15
2022-12-14T17:30:23.987Z,26.55
2022-12-14T17:32:55.756Z,28.77
2022-12-14T17:35:32.232Z,30.50
2022-12-14T17:38:00.267Z,31.13
2022-12-14T17:40:30.162Z,28.92
2022-12-14T17:43:00.168Z,29.15
2022-12-14T17:45:30.707Z,29.98
2022-12-14T17:48:01.354Z,30.02
2022-12-14T17:50:32.281Z,32.42
2022-12-14T17:53:02.290Z,32.47
2022-12-14T17:55:32.783Z,33.72
2022-12-14T17:58:02.944Z,29.90
2022-12-14T18:00:52.353Z,32.25
2022-12-14T18:03:22.394Z,32.88
2022-12-14T18:05:52.820Z,31.95
2022-12-14T18:08:24.739Z,33.40
2022-12-14T18:11:10.241Z,30.45
2022-12-14T18:13:44.720Z,31.02
2022-12-14T18:16:24.163Z,30.30
2022-12-14T18:18:54.955Z,32.78
2022-12-14T18:21:30.237Z,32.35
2022-12-14T18:24:00.773Z,32.25
2022-12-14T18:26:30.827Z,32.08
2022-12-14T18:29:00.853Z,31.55
2022-12-14T18:31:38.213Z,32.08
2022-12-14T18:34:10.949Z,31.03
2022-12-14T18:36:41.356Z,31.52
2022-12-14T18:39:11.425Z,32.85
2022-12-14T18:41:39.885Z,34.35
2022-12-14T18:44:11.467Z,31.10
2022-12-14T18:46:39.976Z,33.55
2022-12-14T18:49:08.261Z,32.78
2022-12-14T18:51:36.785Z,32.67
2022-12-14T18:54:06.884Z,32.30
2022-12-14T18:56:37.051Z,33.33
2022-12-14T18:59:07.067Z,31.92
2022-12-14T19:01:37.256Z,34.67
2022-12-14T19:04:08.285Z,35.00
2022-12-14T19:06:46.012Z,33.65
2022-12-14T19:09:15.493Z,34.78
2022-12-14T19:11:45.507Z,37.70
2022-12-14T19:14:16.071Z,34.58
2022-12-14T19:16:45.153Z,37.55
2022-12-14T19:19:15.041Z,36.25
2022-12-14T19:21:44.762Z,36.28
2022-12-14T19:24:15.099Z,34.40
2022-12-14T19:26:45.431Z,33.78
2022-12-14T19:29:19.920Z,33.30
2022-12-14T19:31:54.037Z,33.58
2022-12-14T19:34:24.640Z,33.05
2022-12-14T19:36:54.729Z,34.67
2022-12-14T19:39:24.476Z,34.38
2022-12-14T19:41:54.946Z,35.17
2022-12-14T19:44:25.083Z,33.83
2022-12-14T19:46:54.950Z,31.30
2022-12-14T19:49:24.763Z,33.05
2022-12-14T19:51:54.685Z,32.05
2022-12-14T19:54:24.420Z,32.72
2022-12-14T19:56:54.482Z,32.53
2022-12-14T19:59:24.226Z,35.88
2022-12-14T20:01:54.246Z,34.38
2022-12-14T20:04:24.658Z,34.85
2022-12-14T20:06:54.911Z,34.58
2022-12-14T20:09:24.838Z,31.08
2022-12-14T20:11:54.621Z,36.72
2022-12-14T20:14:26.543Z,36.35
2022-12-14T20:16:56.431Z,34.20
2022-12-14T20:19:24.958Z,36.85
2022-12-14T20:21:53.149Z,38.33
2022-12-14T20:24:21.337Z,35.88
2022-12-14T20:26:51.437Z,36.00
2022-12-14T20:29:19.793Z,39.25
2022-12-14T20:31:50.279Z,37.38
2022-12-14T20:34:19.767Z,40.50
2022-12-14T20:36:49.577Z,37.95
2022-12-14T20:39:19.578Z,37.80
2022-12-14T20:41:49.319Z,40.10
2022-12-14T20:44:19.474Z,38.72
2022-12-14T20:46:51.936Z,38.95
2022-12-14T20:49:23.279Z,37.63
2022-12-14T20:51:53.281Z,36.95
2022-12-14T20:54:24.303Z,37.03
2022-12-14T20:56:53.282Z,37.90
2022-12-14T20:59:23.128Z,38.08
2022-12-14T21:01:56.121Z,36.40
2022-12-14T21:04:27.120Z,36.08
2022-12-14T21:06:57.056Z,40.47
2022-12-14T21:09:27.098Z,36.75
2022-12-14T21:12:16.037Z,36.35
2022-12-14T21:14:48.077Z,36.35
2022-12-14T21:17:26.420Z,36.83
2022-12-14T21:19:55.424Z,40.33
2022-12-14T21:22:30.694Z,39.20
2022-12-14T21:25:04.865Z,38.47
2022-12-14T21:27:39.434Z,34.65
2022-12-14T21:30:12.487Z,38.15
2022-12-14T21:32:42.457Z,38.33
2022-12-14T21:35:13.403Z,35.95
2022-12-14T21:37:43.402Z,36.78
2022-12-14T21:40:33.372Z,38.88
2022-12-14T21:43:04.125Z,37.95
2022-12-14T21:45:34.363Z,35.05
2022-12-14T21:48:04.466Z,36.38
2022-12-14T21:50:34.304Z,38.00
2022-12-14T21:53:04.534Z,39.45
2022-12-14T21:55:34.252Z,38.92
2022-12-14T21:58:18.779Z,36.42
2022-12-14T22:00:46.659Z,37.83
2022-12-14T22:03:15.023Z,41.28
2022-12-14T22:05:43.394Z,38.38
2022-12-14T22:08:11.819Z,39.65
2022-12-14T22:10:40.295Z,38.67
2022-12-14T22:13:08.650Z,38.72
2022-12-14T22:15:37.227Z,37.08
2022-12-14T22:18:05.746Z,36.03
2022-12-14T22:20:34.050Z,38.60
2022-12-14T22:23:02.332Z,38.05
2022-12-14T22:25:30.817Z,41.45
2022-12-14T22:27:59.291Z,36.72
2022-12-14T22:30:31.643Z,37.20
2022-12-14T22:33:01.959Z,35.22
2022-12-14T22:35:32.207Z,35.33
2022-12-14T22:38:02.222Z,37.10
2022-12-14T22:40:33.966Z,37.88
2022-12-14T22:43:03.263Z,35.67
2022-12-14T22:45:35.329Z,36.35
2022-12-14T22:48:05.560Z,37.25
2022-12-14T22:50:35.562Z,38.55
2022-12-14T22:53:05.385Z,36.53
2022-12-14T22:55:39.825Z,38.17
2022-12-14T22:58:14.646Z,40.00
2022-12-14T23:00:44.765Z,38.78
2022-12-14T23:03:14.868Z,42.05
2022-12-14T23:05:42.569Z,40.55
2022-12-14T23:08:12.281Z,38.65
2022-12-14T23:11:00.959Z,39.90
2022-12-14T23:13:49.353Z,39.03
2022-12-14T23:16:38.025Z,39.83
2022-12-14T23:19:26.404Z,38.50
2022-12-14T23:22:12.426Z,37.75
2022-12-14T23:25:00.638Z,39.95
2022-12-14T23:27:48.954Z,36.60
2022-12-14T23:30:37.522Z,39.22
2022-12-14T23:33:26.423Z,37.17
2022-12-14T23:36:15.231Z,34.70
2022-12-14T23:39:03.094Z,33.97
2022-12-14T23:41:51.598Z,36.70
2022-12-14T23:44:40.541Z,33.03
2022-12-14T23:47:28.626Z,34.45
2022-12-14T23:50:16.936Z,32.63
2022-12-14T23:53:05.874Z,32.25
2022-12-14T23:55:54.440Z,34.22
2022-12-14T23:58:43.190Z,33.33
